Antioch, Illinois
Current Conditions -  °F | °C
As of 1:53 PM on Saturday 25 Oct 2014 (Local Time) from KENW Reporting Station
Clear Clear  
Wind Chill: 21°   Ceiling: Unl
Heat Index: 21°   Visibility: 10mi
Dew Point:   Wind: 18mph
Humidity: 29%   Direction: 280°W
Pressure: 29.9"   Gusts: 24mph
Location:  42.48°N, 88.1°W
Report Text: KENW 251853Z 28016G21KT 10SM CLR 21/02 A2990 RMK AO2 SLP123 T02110022
Loading
Personal Weather Stations






























Interactive Weather Map
Tropical Storm Tracking
New forecast layout! Learn more

10-Day Weather Forecast

Advertisements
Track Severe Weather on mobile